Time;durP1;ratioP1;P1;durP2;ratioP2;P2;SDS_P1;SDS_P2;PMS_P1;PMS_P2;Temp;Humidity;BMP_temperature;BMP_pressure;BME280_temperature;BME280_humidity;BME280_pressure;Samples;Min_cycle;Max_cycle;Signal;HPM_P1;HPM_P2
2022/01/13 00:02:15;;;;;;;13.57;3.67;;;;;;;5.34;100.00;101461.25;4982416;28;20136;-82
2022/01/13 00:04:40;;;;;;;12.52;3.70;;;;;;;5.28;100.00;101463.31;4999840;28;20416;-82
2022/01/13 00:07:06;;;;;;;11.35;3.88;;;;;;;5.24;100.00;101459.25;4974821;28;20042;-83
2022/01/13 00:09:32;;;;;;;14.25;4.22;;;;;;;5.15;100.00;101458.06;4978527;28;20054;-84
2022/01/13 00:11:59;;;;;;;11.52;4.00;;;;;;;5.03;100.00;101465.84;4981370;28;20030;-83
2022/01/13 00:14:38;;;;;;;10.27;3.90;;;;;;;4.85;100.00;101460.88;4962087;28;20396;-83
2022/01/13 00:22:15;;;;;;;15.82;5.93;;;;;;;4.92;100.00;101456.09;4981281;28;20030;-83
2022/01/13 00:24:44;;;;;;;19.55;6.65;;;;;;;4.98;100.00;101453.94;4999547;28;20042;-83
2022/01/13 00:27:12;;;;;;;12.25;5.20;;;;;;;4.89;100.00;101440.69;4965531;28;20480;-82
2022/01/13 00:29:41;;;;;;;19.70;6.40;;;;;;;4.80;100.00;101442.09;4982890;28;20038;-82
2022/01/13 00:32:09;;;;;;;17.27;6.40;;;;;;;4.80;100.00;101436.91;4985597;28;20758;-83
2022/01/13 00:34:34;;;;;;;16.40;7.10;;;;;;;4.84;100.00;101433.16;4995230;28;20037;-83
2022/01/13 00:37:00;;;;;;;20.73;6.55;;;;;;;4.78;100.00;101423.16;4983342;28;20056;-83
2022/01/13 00:39:25;;;;;;;19.98;6.68;;;;;;;4.74;100.00;101429.50;5008905;28;20037;-83
2022/01/13 00:41:54;;;;;;;18.45;6.75;;;;;;;4.64;100.00;101417.06;4977428;28;20061;-83
2022/01/13 00:44:21;;;;;;;16.77;6.68;;;;;;;4.62;100.00;101408.50;4984096;28;20033;-83
2022/01/13 00:46:54;;;;;;;20.13;7.22;;;;;;;4.80;100.00;101421.28;4985748;28;20026;-83
2022/01/13 00:49:21;;;;;;;24.85;9.02;;;;;;;4.86;100.00;101421.75;4966522;28;20088;-82
2022/01/13 00:51:46;;;;;;;18.05;6.60;;;;;;;4.85;100.00;101419.22;4983400;28;20034;-81
2022/01/13 00:54:13;;;;;;;14.45;6.63;;;;;;;4.78;100.00;101407.56;4966060;28;20030;-82
2022/01/13 00:56:39;;;;;;;17.35;6.45;;;;;;;4.67;100.00;101411.66;4999669;28;20064;-83
2022/01/13 00:59:10;;;;;;;19.80;6.53;;;;;;;4.56;100.00;101414.94;4979387;28;20121;-83
2022/01/13 01:01:38;;;;;;;17.55;6.82;;;;;;;4.61;100.00;101413.81;4983668;28;20026;-83
2022/01/13 01:04:05;;;;;;;17.67;7.07;;;;;;;4.67;100.00;101422.06;4979442;28;20364;-83
2022/01/13 01:06:31;;;;;;;15.88;6.05;;;;;;;4.74;100.00;101413.88;4966545;28;20040;-81
2022/01/13 01:08:57;;;;;;;16.50;5.90;;;;;;;4.66;100.00;101407.38;4984869;28;20961;-82
2022/01/13 01:11:26;;;;;;;16.88;6.80;;;;;;;4.69;100.00;101428.00;4982077;28;20045;-82
2022/01/13 01:13:57;;;;;;;13.52;6.22;;;;;;;4.72;100.00;101426.97;4980963;28;20022;-82
2022/01/13 01:16:25;;;;;;;20.70;6.35;;;;;;;4.61;100.00;101425.06;4975433;28;20116;-83
2022/01/13 01:19:04;;;;;;;16.52;5.90;;;;;;;4.62;100.00;101423.28;4984789;28;20030;-83
2022/01/13 01:21:46;;;;;;;12.93;4.85;;;;;;;4.63;100.00;101420.59;4999157;28;20033;-81
2022/01/13 01:26:42;;;;;;;13.68;4.57;;;;;;;4.84;100.00;101412.34;4996452;28;20036;-82
2022/01/13 01:29:36;;;;;;;12.48;4.35;;;;;;;4.82;100.00;101414.22;4988206;28;20065;-81
2022/01/13 01:32:08;;;;;;;;;;;;;;;5.17;100.00;101407.66;4973151;28;20081;-82
2022/01/13 01:37:16;;;;;;;16.15;3.38;;;;;;;5.26;100.00;101396.66;4988279;28;20022;-82
2022/01/13 01:39:46;;;;;;;9.05;3.10;;;;;;;5.43;100.00;101393.78;4989811;28;20030;-82
2022/01/13 01:42:12;;;;;;;11.85;3.42;;;;;;;5.50;100.00;101391.59;5007419;28;20030;-82
2022/01/13 01:44:42;;;;;;;6.38;3.17;;;;;;;5.70;100.00;101389.41;4972471;28;20030;-83
2022/01/13 01:47:14;;;;;;;9.32;2.88;;;;;;;5.82;100.00;101409.41;4988173;28;20038;-83
2022/01/13 01:49:42;;;;;;;12.00;3.30;;;;;;;5.90;100.00;101382.81;4990587;28;20045;-81
2022/01/13 01:52:11;;;;;;;10.57;3.33;;;;;;;5.19;100.00;101383.19;4985457;28;20028;-82
2022/01/13 01:54:38;;;;;;;10.30;2.47;;;;;;;5.16;100.00;101388.63;4973150;28;20030;-82
2022/01/13 01:57:07;;;;;;;10.95;2.90;;;;;;;4.97;100.00;101368.16;4988018;28;20507;-82
2022/01/13 01:59:37;;;;;;;11.25;3.22;;;;;;;4.92;100.00;101386.69;4993718;28;20030;-83
2022/01/13 02:02:03;;;;;;;12.13;3.03;;;;;;;4.72;100.00;101373.19;4988441;28;20036;-82
2022/01/13 02:04:29;;;;;;;10.88;3.03;;;;;;;4.58;100.00;101386.25;4975247;28;20030;-83
2022/01/13 02:06:56;;;;;;;7.00;2.65;;;;;;;4.41;100.00;101374.28;4990683;28;20137;-82
2022/01/13 02:09:22;;;;;;;10.50;3.22;;;;;;;4.78;100.00;101386.72;4970021;28;20394;-82
2022/01/13 02:11:53;;;;;;;14.95;3.30;;;;;;;4.44;100.00;101379.31;4987498;28;20038;-81
2022/01/13 02:17:04;;;;;;;10.10;3.15;;;;;;;4.11;100.00;101375.28;5003877;28;20030;-82
2022/01/13 02:19:31;;;;;;;8.07;2.72;;;;;;;4.08;100.00;101373.69;4980787;28;20085;-82
2022/01/13 02:21:57;;;;;;;11.25;3.35;;;;;;;4.18;100.00;101386.13;5005060;28;20081;-81
2022/01/13 02:24:23;;;;;;;11.05;2.38;;;;;;;4.08;100.00;101371.09;4988286;28;20484;-82
2022/01/13 02:26:49;;;;;;;11.30;3.35;;;;;;;3.99;100.00;101376.84;4972790;28;20507;-81
2022/01/13 02:29:15;;;;;;;13.50;2.38;;;;;;;4.02;100.00;101376.66;4994907;28;20034;-81
2022/01/13 02:31:41;;;;;;;12.95;2.92;;;;;;;3.98;100.00;101373.41;4986953;28;20042;-80
2022/01/13 02:34:08;;;;;;;10.95;2.38;;;;;;;3.90;100.00;101372.19;4985731;28;20045;-83
2022/01/13 02:36:34;;;;;;;12.55;2.60;;;;;;;3.83;100.00;101375.19;4973803;28;20034;-83
2022/01/13 02:39:00;;;;;;;15.27;2.33;;;;;;;3.73;100.00;101384.44;4977563;28;20113;-82
2022/01/13 02:41:26;;;;;;;7.55;2.53;;;;;;;3.61;100.00;101382.59;5001659;28;20109;-83
2022/01/13 02:43:53;;;;;;;12.70;2.05;;;;;;;3.51;100.00;101380.53;4986944;28;20117;-83
2022/01/13 02:46:55;;;;;;;12.70;2.10;;;;;;;3.61;100.00;101373.03;5000490;28;20117;-83
2022/01/13 02:49:24;;;;;;;4.55;1.70;;;;;;;3.51;100.00;101375.34;4982740;28;20507;-84
2022/01/13 02:51:52;;;;;;;9.55;2.13;;;;;;;3.52;100.00;101377.00;4986425;28;20030;-84
2022/01/13 02:54:18;;;;;;;7.38;1.70;;;;;;;3.54;100.00;101382.97;4985379;28;20096;-81
2022/01/13 02:56:44;;;;;;;9.15;2.30;;;;;;;3.43;100.00;101395.72;4971189;28;20033;-81
2022/01/13 02:59:11;;;;;;;4.65;1.67;;;;;;;3.34;100.00;101399.69;4988763;28;20484;-82
2022/01/13 03:01:37;;;;;;;7.95;2.15;;;;;;;3.27;100.00;101399.22;4996826;28;20092;-83
2022/01/13 03:04:07;;;;;;;4.03;1.40;;;;;;;3.13;100.00;101401.75;4986944;28;20065;-83
2022/01/13 03:06:38;;;;;;;4.90;1.60;;;;;;;3.02;100.00;101398.94;5006039;28;20044;-83
2022/01/13 03:09:07;;;;;;;5.00;1.55;;;;;;;2.92;100.00;101399.44;5004674;28;20030;-83
2022/01/13 03:11:35;;;;;;;10.05;2.03;;;;;;;2.98;100.00;101401.72;4977238;28;20030;-83
2022/01/13 03:14:03;;;;;;;4.15;1.40;;;;;;;3.26;100.00;101396.72;4988009;28;20038;-83
2022/01/13 03:16:29;;;;;;;5.90;1.73;;;;;;;3.28;100.00;101403.47;4985291;28;20038;-83
2022/01/13 03:18:55;;;;;;;8.05;1.73;;;;;;;3.26;100.00;101397.53;4995386;28;20471;-84
2022/01/13 03:21:21;;;;;;;6.97;2.58;;;;;;;3.29;100.00;101393.94;4985804;28;20134;-83
2022/01/13 03:23:47;;;;;;;8.30;1.60;;;;;;;3.19;100.00;101382.41;4983519;28;20029;-83
2022/01/13 03:26:13;;;;;;;8.45;1.92;;;;;;;3.35;100.00;101397.94;4972622;28;20089;-84
2022/01/13 03:28:41;;;;;;;6.05;1.80;;;;;;;3.29;100.00;101381.78;4986696;28;20038;-83
2022/01/13 03:31:08;;;;;;;8.88;2.22;;;;;;;3.19;100.00;101396.22;4965834;28;20091;-83
2022/01/13 03:33:34;;;;;;;7.55;1.77;;;;;;;3.10;100.00;101391.56;4977672;28;20045;-83
2022/01/13 03:36:02;;;;;;;6.85;1.88;;;;;;;3.11;100.00;101395.81;4988159;28;20486;-82
2022/01/13 03:38:29;;;;;;;9.93;1.98;;;;;;;3.12;100.00;101400.09;4985130;28;20041;-82
2022/01/13 03:40:54;;;;;;;5.63;2.03;;;;;;;2.98;100.00;101400.88;4979179;28;20117;-81
2022/01/13 03:43:20;;;;;;;5.05;2.05;;;;;;;2.91;100.00;101397.78;4984728;28;20153;-81
2022/01/13 03:45:49;;;;;;;5.25;1.90;;;;;;;2.91;100.00;101394.38;4977049;28;20120;-81
2022/01/13 03:48:15;;;;;;;10.93;2.38;;;;;;;2.75;100.00;101395.22;5002051;28;20033;-81
2022/01/13 03:50:41;;;;;;;4.18;1.92;;;;;;;2.75;100.00;101396.97;4984966;28;20026;-82
2022/01/13 03:53:28;;;;;;;6.40;2.28;;;;;;;2.67;100.00;101400.81;4972913;28;20037;-81
2022/01/13 03:56:46;;;;;;;5.13;1.40;;;;;;;2.59;100.00;101397.81;4966222;28;20136;-81
2022/01/13 03:59:47;;;;;;;8.73;2.17;;;;;;;2.68;100.00;101402.50;4986180;28;20034;-81
2022/01/13 04:02:14;;;;;;;10.30;2.35;;;;;;;2.92;100.00;101381.28;4956454;28;20149;-82
2022/01/13 04:04:43;;;;;;;10.77;2.40;;;;;;;3.09;100.00;101384.69;4982148;28;20512;-83
2022/01/13 04:07:21;;;;;;;6.82;2.30;;;;;;;3.22;100.00;101380.47;4969935;28;20041;-82
2022/01/13 04:09:46;;;;;;;10.88;2.60;;;;;;;3.38;100.00;101374.41;4976684;28;20518;-82
2022/01/13 04:12:13;;;;;;;11.07;1.98;;;;;;;3.17;100.00;101361.75;4960907;28;20044;-82
2022/01/13 04:17:11;;;;;;;8.07;2.30;;;;;;;3.06;100.00;101370.16;5003609;28;20057;-81
2022/01/13 04:19:36;;;;;;;4.93;2.40;;;;;;;3.11;100.00;101375.06;4985742;28;20065;-83
2022/01/13 04:22:06;;;;;;;7.50;2.28;;;;;;;2.95;100.00;101362.97;4976228;28;20053;-83
2022/01/13 04:24:32;;;;;;;9.25;2.20;;;;;;;2.90;100.00;101367.56;4983945;28;20057;-81
2022/01/13 04:26:58;;;;;;;9.02;2.47;;;;;;;2.85;100.00;101378.22;4981302;28;20121;-81
2022/01/13 04:29:29;;;;;;;12.07;3.72;;;;;;;2.80;100.00;101374.22;5000091;28;20062;-81
2022/01/13 04:31:55;;;;;;;13.27;3.10;;;;;;;2.72;100.00;101383.25;4979782;28;20038;-82
2022/01/13 04:34:21;;;;;;;11.05;2.42;;;;;;;2.80;100.00;101375.03;4988334;28;20041;-81
2022/01/13 04:36:47;;;;;;;9.80;3.67;;;;;;;2.75;100.00;101377.06;4984854;28;20397;-81
2022/01/13 04:39:15;;;;;;;13.07;2.63;;;;;;;2.71;100.00;101386.75;5002935;28;20104;-81
2022/01/13 04:41:44;;;;;;;10.80;2.80;;;;;;;2.73;100.00;101381.50;4984371;28;20054;-82
2022/01/13 04:44:13;;;;;;;15.43;3.22;;;;;;;2.94;100.00;101379.44;4984065;28;20040;-81
2022/01/13 04:46:39;;;;;;;12.23;3.13;;;;;;;3.21;100.00;101378.81;5006893;28;20124;-80
2022/01/13 04:49:06;;;;;;;12.18;3.00;;;;;;;3.21;100.00;101368.44;5007047;28;20152;-82
2022/01/13 04:51:33;;;;;;;11.40;3.58;;;;;;;3.06;100.00;101356.31;4986923;28;20476;-81
2022/01/13 04:53:59;;;;;;;6.57;2.58;;;;;;;3.12;100.00;101369.78;4990767;28;20476;-82
2022/01/13 04:59:04;;;;;;;11.90;3.10;;;;;;;3.09;100.00;101364.78;4992749;28;20046;-84
2022/01/13 05:01:30;;;;;;;17.73;3.33;;;;;;;3.11;100.00;101377.66;4985621;28;20434;-83
2022/01/13 05:03:55;;;;;;;9.23;3.42;;;;;;;3.12;100.00;101372.38;4971898;28;20037;-82
2022/01/13 05:06:21;;;;;;;16.35;3.63;;;;;;;3.12;100.00;101363.75;4966269;28;20054;-82
2022/01/13 05:08:48;;;;;;;14.95;3.95;;;;;;;3.21;100.00;101365.81;4985565;28;20112;-83
2022/01/13 05:11:15;;;;;;;17.95;3.70;;;;;;;3.26;100.00;101370.75;4991799;28;20448;-82
2022/01/13 05:13:41;;;;;;;12.00;4.07;;;;;;;3.38;100.00;101380.41;4968813;28;20041;-82
2022/01/13 05:16:14;;;;;;;7.63;4.03;;;;;;;3.50;100.00;101378.84;4984395;28;20037;-82
2022/01/13 05:21:19;;;;;;;11.40;4.18;;;;;;;3.18;100.00;101379.00;5002171;28;20022;-82
2022/01/13 05:23:44;;;;;;;12.40;4.20;;;;;;;3.18;100.00;101373.81;4983498;28;20507;-83
2022/01/13 05:26:10;;;;;;;16.98;5.20;;;;;;;3.05;100.00;101375.41;5003920;28;20026;-84
2022/01/13 05:28:37;;;;;;;13.45;4.53;;;;;;;2.94;100.00;101363.88;4986553;28;20030;-84
2022/01/13 05:31:05;;;;;;;10.68;4.57;;;;;;;3.04;100.00;101360.78;4977078;28;20026;-82
2022/01/13 05:33:30;;;;;;;16.10;5.22;;;;;;;3.16;100.00;101360.06;4984980;28;20071;-84
2022/01/13 05:35:56;;;;;;;13.27;5.70;;;;;;;3.18;100.00;101358.22;4986749;28;20033;-84
2022/01/13 05:38:22;;;;;;;12.73;5.45;;;;;;;3.23;100.00;101363.13;4994414;28;20414;-83
2022/01/13 05:40:47;;;;;;;16.83;5.55;;;;;;;3.11;100.00;101356.88;4988623;28;20037;-84
2022/01/13 05:43:13;;;;;;;14.63;6.07;;;;;;;3.19;100.00;101354.72;4971466;28;20040;-85
2022/01/13 05:45:39;;;;;;;13.70;5.82;;;;;;;3.12;100.00;101349.03;4982273;28;20035;-82
2022/01/13 05:48:07;;;;;;;17.33;6.03;;;;;;;3.13;100.00;101355.88;4989443;28;20034;-84
2022/01/13 05:50:32;;;;;;;13.00;6.97;;;;;;;3.21;100.00;101363.22;4983921;28;20038;-83
2022/01/13 05:52:59;;;;;;;15.35;6.53;;;;;;;3.25;100.00;101359.53;4991548;28;20060;-84
2022/01/13 05:55:25;;;;;;;16.55;7.30;;;;;;;3.20;100.00;101358.97;4986120;28;20117;-83
2022/01/13 05:57:52;;;;;;;13.25;6.95;;;;;;;3.09;100.00;101351.81;4982304;28;20420;-83
2022/01/13 06:00:20;;;;;;;19.25;8.02;;;;;;;3.17;100.00;101359.16;4998602;28;20042;-83
2022/01/13 06:02:47;;;;;;;12.35;7.78;;;;;;;3.20;100.00;101355.53;4981440;28;20026;-83
2022/01/13 06:05:14;;;;;;;17.40;8.55;;;;;;;3.19;100.00;101348.66;4966305;28;20029;-84
2022/01/13 06:07:39;;;;;;;18.17;8.73;;;;;;;3.16;100.00;101360.06;5006996;28;20063;-83
2022/01/13 06:10:12;;;;;;;26.98;9.32;;;;;;;3.25;100.00;101359.53;4994866;28;20030;-82
2022/01/13 06:12:38;;;;;;;20.88;8.77;;;;;;;3.24;100.00;101362.19;5008340;28;20033;-82
2022/01/13 06:15:07;;;;;;;21.42;8.52;;;;;;;3.16;100.00;101349.69;5004297;28;20054;-82
2022/01/13 06:17:32;;;;;;;18.48;8.15;;;;;;;3.18;100.00;101347.00;4968686;28;20022;-84
2022/01/13 06:19:59;;;;;;;18.52;9.15;;;;;;;3.14;100.00;101351.53;4971687;28;20491;-84
2022/01/13 06:22:26;;;;;;;16.77;8.38;;;;;;;3.13;100.00;101349.84;4983749;28;20085;-84
2022/01/13 06:24:53;;;;;;;24.40;9.18;;;;;;;3.04;100.00;101340.84;4984516;28;20034;-83
2022/01/13 06:27:21;;;;;;;18.95;8.32;;;;;;;2.96;100.00;101343.91;4983774;28;20388;-84
2022/01/13 06:29:48;;;;;;;17.38;9.02;;;;;;;2.76;100.00;101337.22;5004073;28;20113;-82
2022/01/13 06:32:14;;;;;;;19.90;8.30;;;;;;;2.66;100.00;101342.09;4975834;28;20050;-83
2022/01/13 06:34:39;;;;;;;16.00;8.20;;;;;;;2.69;100.00;101341.91;4990597;28;20530;-83
2022/01/13 06:37:05;;;;;;;17.58;9.20;;;;;;;2.58;100.00;101352.06;4989596;28;20475;-82
2022/01/13 06:39:31;;;;;;;16.17;9.38;;;;;;;2.56;100.00;101351.31;4986423;28;20034;-84
2022/01/13 06:41:56;;;;;;;15.95;9.20;;;;;;;2.59;100.00;101356.34;4991628;28;20030;-85
2022/01/13 06:44:22;;;;;;;21.50;10.30;;;;;;;2.46;100.00;101342.38;4987625;28;20089;-83
2022/01/13 06:46:48;;;;;;;21.00;10.23;;;;;;;2.56;100.00;101356.50;5004764;28;20041;-82
2022/01/13 06:49:13;;;;;;;30.80;11.85;;;;;;;2.63;100.00;101369.94;4985975;28;20042;-83
2022/01/13 06:51:39;;;;;;;25.52;12.80;;;;;;;2.59;100.00;101361.53;4986544;28;20393;-83
2022/01/13 06:54:05;;;;;;;22.80;12.07;;;;;;;2.56;100.00;101367.69;4964685;28;20030;-83
2022/01/13 06:56:31;;;;;;;22.30;11.75;;;;;;;2.58;100.00;101367.63;4975678;28;20030;-83
2022/01/13 06:58:56;;;;;;;24.08;11.40;;;;;;;2.61;100.00;101359.69;4991758;28;20384;-83
2022/01/13 07:01:23;;;;;;;23.50;11.52;;;;;;;2.64;100.00;101350.88;4992923;28;20038;-84
2022/01/13 07:03:49;;;;;;;29.73;12.02;;;;;;;2.76;100.00;101372.72;4967400;28;20033;-85
2022/01/13 07:06:15;;;;;;;23.17;11.70;;;;;;;2.60;100.00;101363.19;4991256;28;20034;-85
2022/01/13 07:08:40;;;;;;;22.67;12.50;;;;;;;2.62;100.00;101366.53;4985564;28;20506;-85
2022/01/13 07:11:06;;;;;;;25.00;12.02;;;;;;;2.62;100.00;101366.53;4991770;28;20030;-83
2022/01/13 07:13:32;;;;;;;24.48;11.57;;;;;;;2.76;100.00;101367.53;4981164;28;20033;-84
2022/01/13 07:16:00;;;;;;;25.27;11.68;;;;;;;2.80;100.00;101374.22;4967887;28;20034;-83
2022/01/13 07:18:27;;;;;;;23.92;11.23;;;;;;;2.75;100.00;101363.25;4971496;28;20057;-84
2022/01/13 07:20:53;;;;;;;24.48;11.13;;;;;;;2.82;100.00;101373.19;4983446;28;20476;-82
2022/01/13 07:23:19;;;;;;;27.75;11.35;;;;;;;2.68;100.00;101370.56;4991425;28;20031;-81
2022/01/13 07:25:45;;;;;;;21.27;10.15;;;;;;;2.68;100.00;101378.34;4970064;28;20549;-81
2022/01/13 07:28:10;;;;;;;18.75;9.30;;;;;;;2.71;100.00;101381.56;4988787;28;20038;-83
2022/01/13 07:30:36;;;;;;;22.73;10.30;;;;;;;2.65;100.00;101376.72;4987871;28;20030;-84
2022/01/13 07:33:02;;;;;;;27.13;10.13;;;;;;;2.63;100.00;101375.97;4990942;28;20129;-84
2022/01/13 07:35:28;;;;;;;20.13;9.90;;;;;;;2.59;100.00;101382.25;5003374;28;20034;-86
2022/01/13 07:37:54;;;;;;;38.75;16.92;;;;;;;2.53;100.00;101387.78;4985140;28;20409;-87
2022/01/13 07:40:20;;;;;;;45.42;19.08;;;;;;;2.42;100.00;101386.63;4972968;28;20045;-87
2022/01/13 07:42:47;;;;;;;41.25;17.77;;;;;;;2.39;100.00;101391.97;4978307;28;20045;-87
2022/01/13 07:45:14;;;;;;;32.28;15.85;;;;;;;2.27;100.00;101396.06;5000637;28;20087;-87
2022/01/13 07:47:40;;;;;;;33.17;16.17;;;;;;;2.12;100.00;101384.72;4985254;28;20041;-86
2022/01/13 07:50:12;;;;;;;32.40;13.40;;;;;;;2.13;100.00;101395.94;4994039;28;20411;-85
2022/01/13 07:52:37;;;;;;;29.95;12.38;;;;;;;2.25;100.00;101384.09;4970862;28;20034;-89
2022/01/13 07:55:03;;;;;;;25.45;12.63;;;;;;;2.29;100.00;101393.38;5000971;28;20037;-86
2022/01/13 07:57:30;;;;;;;28.45;11.30;;;;;;;2.26;100.00;101390.94;5001837;28;20038;-88
2022/01/13 07:59:56;;;;;;;26.95;13.65;;;;;;;2.19;100.00;101395.63;4986611;28;20443;-86
2022/01/13 08:02:22;;;;;;;30.17;14.50;;;;;;;2.13;100.00;101403.72;4977234;28;20034;-89
2022/01/13 08:04:49;;;;;;;32.25;15.95;;;;;;;1.98;100.00;101387.25;4977660;28;20112;-89
2022/01/13 08:07:15;;;;;;;35.80;20.00;;;;;;;2.05;100.00;101406.72;4986362;28;20042;-87
2022/01/13 08:09:42;;;;;;;40.25;20.00;;;;;;;1.92;100.00;101387.53;4991826;28;20559;-89
2022/01/13 08:12:08;;;;;;;31.13;16.40;;;;;;;2.03;100.00;101398.19;4982736;28;20038;-89
2022/01/13 08:14:34;;;;;;;33.33;14.73;;;;;;;2.14;100.00;101406.22;4999876;28;20026;-88
2022/01/13 08:17:02;;;;;;;31.13;15.23;;;;;;;2.40;100.00;101404.00;4989290;28;20026;-88
2022/01/13 08:19:46;;;;;;;37.67;15.85;;;;;;;2.40;100.00;101397.97;4975226;28;20038;-87
2022/01/13 08:22:16;;;;;;;31.10;14.55;;;;;;;2.37;100.00;101401.59;4984450;28;20377;-88
2022/01/13 08:24:48;;;;;;;38.00;18.27;;;;;;;2.27;100.00;101392.63;4989155;28;20030;-90
2022/01/13 08:27:20;;;;;;;33.97;17.15;;;;;;;2.37;100.00;101386.03;4987023;28;20510;-91
2022/01/13 08:29:45;;;;;;;34.83;16.27;;;;;;;2.30;100.00;101387.25;5001228;28;20045;-86
2022/01/13 08:32:11;;;;;;;46.63;19.17;;;;;;;2.36;100.00;101392.13;4982086;28;20033;-86
2022/01/13 08:34:40;;;;;;;35.17;15.75;;;;;;;2.57;100.00;101394.47;4983665;28;20045;-88
2022/01/13 08:37:05;;;;;;;30.48;13.52;;;;;;;2.68;100.00;101392.13;4980727;28;20488;-87
2022/01/13 08:39:38;;;;;;;31.40;12.32;;;;;;;2.74;100.00;101379.72;5014016;28;20033;-88
2022/01/13 08:42:04;;;;;;;29.90;12.60;;;;;;;2.90;100.00;101384.91;4968875;28;20499;-88
2022/01/13 08:44:30;;;;;;;27.77;13.85;;;;;;;2.79;100.00;101386.34;4994233;28;20038;-88
2022/01/13 08:46:55;;;;;;;31.48;13.80;;;;;;;2.94;100.00;101391.59;4981772;28;20030;-90
2022/01/13 08:49:21;;;;;;;25.40;14.10;;;;;;;2.96;100.00;101390.59;4989679;28;20114;-86
2022/01/13 08:51:47;;;;;;;27.42;14.63;;;;;;;2.98;100.00;101399.13;4974009;28;20394;-88
2022/01/13 08:54:12;;;;;;;34.22;16.08;;;;;;;2.88;100.00;101376.38;4969946;28;20045;-87
2022/01/13 08:56:38;;;;;;;34.22;15.20;;;;;;;2.93;100.00;101387.31;4975463;28;20084;-87
2022/01/13 08:59:04;;;;;;;26.08;14.32;;;;;;;3.03;100.00;101395.44;4983123;28;20034;-86
2022/01/13 09:01:30;;;;;;;25.92;13.85;;;;;;;3.07;100.00;101386.53;4988582;28;20026;-87
2022/01/13 09:03:56;;;;;;;30.27;15.43;;;;;;;3.03;100.00;101390.25;4980477;28;20030;-87
2022/01/13 09:06:22;;;;;;;36.50;17.25;;;;;;;3.13;100.00;101399.16;4983249;28;20037;-86
2022/01/13 09:08:48;;;;;;;36.42;14.98;;;;;;;3.21;100.00;101394.38;4982921;28;20042;-86
2022/01/13 09:11:13;;;;;;;32.97;14.85;;;;;;;3.24;100.00;101393.34;4988136;28;20033;-85
2022/01/13 09:13:39;;;;;;;39.83;15.65;;;;;;;3.31;100.00;101389.50;4998609;28;20384;-84
2022/01/13 09:16:14;;;;;;;33.63;13.93;;;;;;;3.36;100.00;101391.84;4998211;28;20501;-84
2022/01/13 09:21:23;;;;;;;34.55;12.10;;;;;;;3.74;100.00;101393.94;5003812;28;20073;-87
2022/01/13 09:23:49;;;;;;;32.53;13.30;;;;;;;3.88;100.00;101381.84;5000689;28;20133;-86
2022/01/13 09:26:15;;;;;;;30.30;13.13;;;;;;;4.04;100.00;101387.81;4982858;28;20066;-87
2022/01/13 09:28:41;;;;;;;25.65;11.75;;;;;;;4.07;100.00;101377.22;4970535;28;20034;-85
2022/01/13 09:31:07;;;;;;;23.15;10.60;;;;;;;4.05;100.00;101389.47;4994078;28;20499;-87
2022/01/13 09:33:34;;;;;;;30.33;13.43;;;;;;;4.06;100.00;101378.13;4984490;28;20125;-87
2022/01/13 09:36:00;;;;;;;27.83;13.90;;;;;;;4.07;100.00;101384.19;4984842;28;20403;-87
2022/01/13 09:38:50;;;;;;;27.60;12.95;;;;;;;4.05;100.00;101386.88;4992815;28;20041;-86
2022/01/13 09:41:18;;;;;;;26.75;12.13;;;;;;;4.09;100.00;101390.94;4970803;28;20468;-85
2022/01/13 09:43:45;;;;;;;26.65;13.18;;;;;;;4.27;100.00;101389.00;4996308;28;20037;-85
2022/01/13 09:46:11;;;;;;;32.97;13.75;;;;;;;4.27;100.00;101382.94;5018177;28;20034;-86
2022/01/13 09:48:40;;;;;;;25.45;11.43;;;;;;;4.38;100.00;101383.13;4993629;28;20436;-84
2022/01/13 09:51:06;;;;;;;23.63;11.07;;;;;;;4.41;100.00;101380.31;4985466;28;20037;-84
2022/01/13 09:53:33;;;;;;;20.85;9.85;;;;;;;4.51;100.00;101370.19;5006753;28;20034;-84
2022/01/13 09:56:00;;;;;;;18.80;9.35;;;;;;;4.47;100.00;101367.88;4966318;28;20032;-85
2022/01/13 09:58:26;;;;;;;16.73;7.93;;;;;;;4.65;100.00;101381.47;4985866;28;20081;-84
2022/01/13 10:00:51;;;;;;;15.18;8.10;;;;;;;4.75;100.00;101382.53;4964683;28;20041;-84
2022/01/13 10:03:25;;;;;;;20.77;8.07;;;;;;;4.79;100.00;101380.59;4985815;28;20026;-83
2022/01/13 10:06:13;;;;;;;15.10;7.45;;;;;;;4.66;100.00;101357.97;4971047;28;20030;-84
2022/01/13 10:09:08;;;;;;;19.70;7.05;;;;;;;4.86;100.00;101374.06;4984774;28;20038;-85
2022/01/13 10:18:34;;;;;;;22.10;6.78;;;;;;;5.16;100.00;101378.19;4984910;28;20427;-86
2022/01/13 10:21:18;;;;;;;15.13;5.95;;;;;;;5.12;100.00;101381.94;4993653;28;20095;-84
2022/01/13 10:24:12;;;;;;;15.63;5.43;;;;;;;5.31;100.00;101383.34;4989819;28;20132;-84
2022/01/13 10:26:55;;;;;;;15.23;5.85;;;;;;;5.33;100.00;101386.66;4997201;28;20030;-84
2022/01/13 10:29:40;;;;;;;14.20;4.80;;;;;;;5.24;100.00;101369.88;4983859;28;20040;-84
2022/01/13 10:32:07;;;;;;;12.60;5.07;;;;;;;5.40;100.00;101390.53;5008932;28;20033;-83
2022/01/13 10:34:36;;;;;;;14.38;5.68;;;;;;;5.50;100.00;101388.13;4978679;28;20045;-84
2022/01/13 10:37:20;;;;;;;11.40;5.07;;;;;;;5.56;100.00;101380.75;4975174;28;20029;-85
2022/01/13 10:40:16;;;;;;;13.82;5.05;;;;;;;5.60;100.00;101389.19;4999559;28;20479;-84
2022/01/13 10:45:34;;;;;;;14.15;5.30;;;;;;;5.53;100.00;101380.97;4988429;28;20456;-83
2022/01/13 10:48:16;;;;;;;11.05;5.13;;;;;;;5.55;100.00;101391.25;4989272;28;20044;-84
2022/01/13 10:50:50;;;;;;;19.35;6.63;;;;;;;5.65;100.00;101389.72;4982368;28;20034;-84
2022/01/13 10:53:21;;;;;;;13.98;6.18;;;;;;;5.63;100.00;101388.13;4994076;28;20021;-85
2022/01/13 10:55:52;;;;;;;8.88;6.10;;;;;;;5.62;100.00;101392.53;4993277;28;20042;-85
2022/01/13 10:58:24;;;;;;;14.63;6.35;;;;;;;5.61;100.00;101388.25;4992599;28;20037;-84
2022/01/13 11:00:51;;;;;;;12.63;6.15;;;;;;;5.74;100.00;101385.66;4993856;28;20085;-86
2022/01/13 11:03:27;;;;;;;9.85;5.75;;;;;;;5.90;100.00;101384.59;4987050;28;20041;-85
2022/01/13 11:05:54;;;;;;;14.35;6.38;;;;;;;5.81;100.00;101376.47;4987691;28;20121;-84
2022/01/13 11:08:24;;;;;;;10.00;5.30;;;;;;;5.91;100.00;101387.09;4974725;28;20360;-84
2022/01/13 11:10:52;;;;;;;13.43;4.70;;;;;;;5.91;100.00;101389.69;4999273;28;20036;-84
2022/01/13 11:13:21;;;;;;;10.23;4.22;;;;;;;5.96;100.00;101384.16;5011800;28;20026;-85
2022/01/13 11:15:51;;;;;;;12.40;4.20;;;;;;;5.94;100.00;101380.84;4985905;28;20034;-82
2022/01/13 11:18:29;;;;;;;11.57;4.22;;;;;;;5.97;100.00;101376.22;4997916;28;20650;-84
2022/01/13 11:21:01;;;;;;;10.07;4.00;;;;;;;6.01;100.00;101376.88;4980567;28;20026;-84
2022/01/13 11:23:26;;;;;;;12.27;4.20;;;;;;;6.03;100.00;101368.97;4981777;28;20507;-84
2022/01/13 11:25:55;;;;;;;11.88;4.63;;;;;;;6.01;100.00;101366.47;4982428;28;20035;-83
2022/01/13 11:28:36;;;;;;;10.90;4.25;;;;;;;6.09;100.00;101376.34;4992259;28;20057;-83
2022/01/13 11:31:07;;;;;;;8.82;4.65;;;;;;;6.10;100.00;101365.84;4981434;28;20034;-83
2022/01/13 11:33:33;;;;;;;13.25;4.43;;;;;;;5.93;100.00;101356.53;4988058;28;20562;-82
2022/01/13 11:36:02;;;;;;;11.32;4.70;;;;;;;5.92;100.00;101373.13;4974265;28;20038;-83
2022/01/13 11:38:34;;;;;;;9.05;3.88;;;;;;;5.89;100.00;101362.06;5009276;28;20383;-85
2022/01/13 11:41:19;;;;;;;10.95;4.38;;;;;;;5.93;100.00;101363.53;4997286;28;20044;-85
2022/01/13 11:43:48;;;;;;;10.32;4.07;;;;;;;5.90;100.00;101348.94;4986339;28;20100;-85
2022/01/13 11:46:21;;;;;;;13.57;5.10;;;;;;;5.97;100.00;101349.34;4998678;28;20452;-86
2022/01/13 11:48:54;;;;;;;;;;;;;;;5.88;100.00;101344.75;4983430;28;20435;-85
2022/01/13 11:51:21;;;;;;;19.80;5.00;;;;;;;5.85;100.00;101344.03;5016808;28;20021;-85
2022/01/13 11:54:01;;;;;;;14.25;4.53;;;;;;;5.90;100.00;101348.13;4998604;28;20049;-84
2022/01/13 11:56:29;;;;;;;13.45;4.18;;;;;;;5.91;100.00;101344.56;4995634;28;20063;-86
2022/01/13 11:58:56;;;;;;;8.77;4.25;;;;;;;6.04;100.00;101350.59;4987058;28;20471;-86